sensor_id;sensor_type;location;lat;lon;timestamp;pressure;altitude;pressure_sealevel;temperature;humidity
21824;BME280;11074;48.596;9.238;2023-11-22T00:00:44;98471.25;;;9.84;100.00
21824;BME280;11074;48.596;9.238;2023-11-22T00:03:10;98472.19;;;9.78;100.00
21824;BME280;11074;48.596;9.238;2023-11-22T00:05:35;98468.22;;;9.81;100.00
21824;BME280;11074;48.596;9.238;2023-11-22T00:08:01;98469.94;;;9.87;100.00
21824;BME280;11074;48.596;9.238;2023-11-22T00:10:27;98473.91;;;9.84;100.00
21824;BME280;11074;48.596;9.238;2023-11-22T00:12:53;98474.47;;;9.86;100.00
21824;BME280;11074;48.596;9.238;2023-11-22T00:15:19;98463.53;;;9.88;100.00
21824;BME280;11074;48.596;9.238;2023-11-22T00:17:45;98463.88;;;9.91;100.00
21824;BME280;11074;48.596;9.238;2023-11-22T00:20:11;98459.91;;;9.94;99.85
21824;BME280;11074;48.596;9.238;2023-11-22T00:22:37;98450.66;;;9.85;99.27
21824;BME280;11074;48.596;9.238;2023-11-22T00:25:03;98461.56;;;9.95;99.32
21824;BME280;11074;48.596;9.238;2023-11-22T00:27:30;98459.91;;;9.94;99.77
21824;BME280;11074;48.596;9.238;2023-11-22T00:29:57;98464.44;;;9.93;100.00
21824;BME280;11074;48.596;9.238;2023-11-22T00:32:23;98465.25;;;9.94;100.00
21824;BME280;11074;48.596;9.238;2023-11-22T00:34:49;98467.94;;;9.94;100.00
21824;BME280;11074;48.596;9.238;2023-11-22T00:37:15;98470.84;;;9.92;100.00
21824;BME280;11074;48.596;9.238;2023-11-22T00:39:41;98471.50;;;9.99;100.00
21824;BME280;11074;48.596;9.238;2023-11-22T00:42:08;98461.84;;;9.98;99.73
21824;BME280;11074;48.596;9.238;2023-11-22T00:44:34;98477.16;;;9.86;100.00
21824;BME280;11074;48.596;9.238;2023-11-22T00:47:02;98471.81;;;9.86;100.00
21824;BME280;11074;48.596;9.238;2023-11-22T00:49:28;98479.09;;;9.91;100.00
21824;BME280;11074;48.596;9.238;2023-11-22T00:51:53;98488.16;;;9.90;100.00
21824;BME280;11074;48.596;9.238;2023-11-22T00:54:19;98477.97;;;9.87;100.00
21824;BME280;11074;48.596;9.238;2023-11-22T00:56:47;98492.44;;;9.91;100.00
21824;BME280;11074;48.596;9.238;2023-11-22T00:59:13;98489.22;;;9.89;99.95
21824;BME280;11074;48.596;9.238;2023-11-22T01:01:40;98499.75;;;9.67;99.62
21824;BME280;11074;48.596;9.238;2023-11-22T01:04:06;98502.13;;;9.40;98.74
21824;BME280;11074;48.596;9.238;2023-11-22T01:06:33;98496.59;;;9.30;100.00
21824;BME280;11074;48.596;9.238;2023-11-22T01:08:59;98513.44;;;9.19;99.28
21824;BME280;11074;48.596;9.238;2023-11-22T01:11:25;98508.91;;;9.20;99.33
21824;BME280;11074;48.596;9.238;2023-11-22T01:13:50;98505.69;;;9.18;98.96
21824;BME280;11074;48.596;9.238;2023-11-22T01:16:16;98516.91;;;9.08;100.00
21824;BME280;11074;48.596;9.238;2023-11-22T01:18:42;98516.47;;;9.11;99.87
21824;BME280;11074;48.596;9.238;2023-11-22T01:21:08;98530.03;;;9.09;100.00
21824;BME280;11074;48.596;9.238;2023-11-22T01:23:34;98532.25;;;9.12;99.94
21824;BME280;11074;48.596;9.238;2023-11-22T01:26:00;98530.16;;;9.03;98.72
21824;BME280;11074;48.596;9.238;2023-11-22T01:28:27;98545.00;;;8.87;97.78
21824;BME280;11074;48.596;9.238;2023-11-22T01:30:54;98551.56;;;8.73;97.18
21824;BME280;11074;48.596;9.238;2023-11-22T01:33:23;98551.59;;;8.85;99.19
21824;BME280;11074;48.596;9.238;2023-11-22T01:35:49;98554.03;;;8.86;96.38
21824;BME280;11074;48.596;9.238;2023-11-22T01:38:15;98563.28;;;8.84;96.32
21824;BME280;11074;48.596;9.238;2023-11-22T01:40:47;98547.53;;;8.71;97.87
21824;BME280;11074;48.596;9.238;2023-11-22T01:43:20;98563.19;;;8.67;96.54
21824;BME280;11074;48.596;9.238;2023-11-22T01:45:49;98576.22;;;8.57;95.88
21824;BME280;11074;48.596;9.238;2023-11-22T01:48:15;98569.63;;;8.48;95.16
21824;BME280;11074;48.596;9.238;2023-11-22T01:50:42;98577.84;;;8.46;96.01
21824;BME280;11074;48.596;9.238;2023-11-22T01:53:11;98586.88;;;8.57;96.04
21824;BME280;11074;48.596;9.238;2023-11-22T01:55:39;98583.06;;;8.53;97.58
21824;BME280;11074;48.596;9.238;2023-11-22T01:58:06;98588.72;;;8.45;94.59
21824;BME280;11074;48.596;9.238;2023-11-22T02:00:41;98586.03;;;8.33;95.89
21824;BME280;11074;48.596;9.238;2023-11-22T02:03:09;98602.50;;;8.42;95.07
21824;BME280;11074;48.596;9.238;2023-11-22T02:05:34;98606.88;;;8.36;94.64
21824;BME280;11074;48.596;9.238;2023-11-22T02:08:00;98609.41;;;8.31;94.67
21824;BME280;11074;48.596;9.238;2023-11-22T02:10:26;98605.34;;;8.29;95.77
21824;BME280;11074;48.596;9.238;2023-11-22T02:12:52;98604.09;;;8.31;94.53
21824;BME280;11074;48.596;9.238;2023-11-22T02:15:17;98608.25;;;8.27;94.07
21824;BME280;11074;48.596;9.238;2023-11-22T02:17:43;98612.66;;;8.33;94.00
21824;BME280;11074;48.596;9.238;2023-11-22T02:20:11;98614.28;;;8.34;94.67
21824;BME280;11074;48.596;9.238;2023-11-22T02:22:47;98621.72;;;8.32;94.49
21824;BME280;11074;48.596;9.238;2023-11-22T02:25:13;98624.72;;;8.36;95.90
21824;BME280;11074;48.596;9.238;2023-11-22T02:27:40;98629.97;;;8.42;95.29
21824;BME280;11074;48.596;9.238;2023-11-22T02:30:07;98629.47;;;8.34;96.17
21824;BME280;11074;48.596;9.238;2023-11-22T02:32:33;98630.91;;;8.48;95.96
21824;BME280;11074;48.596;9.238;2023-11-22T02:34:59;98631.47;;;8.50;96.28
21824;BME280;11074;48.596;9.238;2023-11-22T02:37:25;98635.28;;;8.42;95.55
21824;BME280;11074;48.596;9.238;2023-11-22T02:40:04;98642.25;;;8.43;95.79
21824;BME280;11074;48.596;9.238;2023-11-22T02:42:30;98648.81;;;8.41;95.14
21824;BME280;11074;48.596;9.238;2023-11-22T02:44:56;98648.16;;;8.45;96.11
21824;BME280;11074;48.596;9.238;2023-11-22T02:47:22;98643.97;;;8.38;95.08
21824;BME280;11074;48.596;9.238;2023-11-22T02:49:48;98643.16;;;8.37;92.89
21824;BME280;11074;48.596;9.238;2023-11-22T02:52:14;98652.47;;;8.28;93.84
21824;BME280;11074;48.596;9.238;2023-11-22T02:54:43;98654.94;;;8.30;94.35
21824;BME280;11074;48.596;9.238;2023-11-22T02:57:11;98658.69;;;8.22;91.57
21824;BME280;11074;48.596;9.238;2023-11-22T02:59:41;98655.59;;;8.07;91.02
21824;BME280;11074;48.596;9.238;2023-11-22T03:02:07;98653.38;;;8.04;93.36
21824;BME280;11074;48.596;9.238;2023-11-22T03:04:33;98663.84;;;8.17;94.33
21824;BME280;11074;48.596;9.238;2023-11-22T03:06:59;98669.88;;;7.94;92.01
21824;BME280;11074;48.596;9.238;2023-11-22T03:09:25;98672.16;;;7.91;92.46
21824;BME280;11074;48.596;9.238;2023-11-22T03:11:52;98673.41;;;7.88;91.48
21824;BME280;11074;48.596;9.238;2023-11-22T03:14:18;98677.94;;;7.88;92.90
21824;BME280;11074;48.596;9.238;2023-11-22T03:16:44;98682.66;;;7.86;90.80
21824;BME280;11074;48.596;9.238;2023-11-22T03:19:10;98675.78;;;7.78;91.78
21824;BME280;11074;48.596;9.238;2023-11-22T03:21:37;98683.34;;;7.81;91.48
21824;BME280;11074;48.596;9.238;2023-11-22T03:24:03;98685.13;;;7.87;90.08
21824;BME280;11074;48.596;9.238;2023-11-22T03:26:30;98691.59;;;7.55;88.79
21824;BME280;11074;48.596;9.238;2023-11-22T03:28:55;98687.84;;;7.81;91.79
21824;BME280;11074;48.596;9.238;2023-11-22T03:31:21;98705.41;;;7.64;88.14
21824;BME280;11074;48.596;9.238;2023-11-22T03:33:47;98707.13;;;7.58;87.85
21824;BME280;11074;48.596;9.238;2023-11-22T03:36:13;98712.91;;;7.49;88.65
21824;BME280;11074;48.596;9.238;2023-11-22T03:38:41;98723.25;;;7.39;87.87
21824;BME280;11074;48.596;9.238;2023-11-22T03:41:07;98720.09;;;7.48;89.16
21824;BME280;11074;48.596;9.238;2023-11-22T03:43:32;98719.78;;;7.38;89.08
21824;BME280;11074;48.596;9.238;2023-11-22T03:45:58;98726.78;;;7.57;89.74
21824;BME280;11074;48.596;9.238;2023-11-22T03:48:24;98730.84;;;7.60;88.98
21824;BME280;11074;48.596;9.238;2023-11-22T03:50:51;98749.69;;;7.58;88.13
21824;BME280;11074;48.596;9.238;2023-11-22T03:53:17;98741.31;;;7.55;88.47
21824;BME280;11074;48.596;9.238;2023-11-22T03:55:44;98759.06;;;7.36;86.89
21824;BME280;11074;48.596;9.238;2023-11-22T03:58:09;98770.72;;;7.35;86.79
21824;BME280;11074;48.596;9.238;2023-11-22T04:00:35;98772.31;;;7.43;87.62
21824;BME280;11074;48.596;9.238;2023-11-22T04:03:01;98780.63;;;7.53;90.08
21824;BME280;11074;48.596;9.238;2023-11-22T04:05:27;98781.97;;;7.62;90.45
21824;BME280;11074;48.596;9.238;2023-11-22T04:07:53;98789.41;;;7.53;88.83
21824;BME280;11074;48.596;9.238;2023-11-22T04:10:20;98794.19;;;7.45;85.61
21824;BME280;11074;48.596;9.238;2023-11-22T04:12:47;98790.84;;;7.24;86.33
21824;BME280;11074;48.596;9.238;2023-11-22T04:15:13;98791.25;;;7.28;89.42
21824;BME280;11074;48.596;9.238;2023-11-22T04:17:40;98789.78;;;7.32;88.20
21824;BME280;11074;48.596;9.238;2023-11-22T04:20:08;98797.25;;;7.17;90.14
21824;BME280;11074;48.596;9.238;2023-11-22T04:22:42;98810.47;;;7.30;90.97
21824;BME280;11074;48.596;9.238;2023-11-22T04:25:08;98815.47;;;7.45;90.47
21824;BME280;11074;48.596;9.238;2023-11-22T04:27:34;98810.78;;;7.40;88.58
21824;BME280;11074;48.596;9.238;2023-11-22T04:30:00;98812.66;;;7.40;87.49
21824;BME280;11074;48.596;9.238;2023-11-22T04:32:26;98819.75;;;7.46;89.27
21824;BME280;11074;48.596;9.238;2023-11-22T04:34:52;98819.97;;;7.44;89.15
21824;BME280;11074;48.596;9.238;2023-11-22T04:37:17;98823.63;;;7.50;87.27
21824;BME280;11074;48.596;9.238;2023-11-22T04:39:43;98825.72;;;7.41;87.47
21824;BME280;11074;48.596;9.238;2023-11-22T04:42:09;98831.78;;;7.55;88.68
21824;BME280;11074;48.596;9.238;2023-11-22T04:44:35;98832.16;;;7.58;89.36
21824;BME280;11074;48.596;9.238;2023-11-22T04:47:00;98828.69;;;7.58;88.53
21824;BME280;11074;48.596;9.238;2023-11-22T04:49:26;98832.75;;;7.60;87.29
21824;BME280;11074;48.596;9.238;2023-11-22T04:51:52;98838.28;;;7.59;87.03
21824;BME280;11074;48.596;9.238;2023-11-22T04:54:18;98833.22;;;7.51;86.97
21824;BME280;11074;48.596;9.238;2023-11-22T04:56:44;98840.19;;;7.52;87.02
21824;BME280;11074;48.596;9.238;2023-11-22T04:59:10;98844.75;;;7.45;83.93
21824;BME280;11074;48.596;9.238;2023-11-22T05:01:36;98858.72;;;7.33;84.87
21824;BME280;11074;48.596;9.238;2023-11-22T05:04:02;98856.72;;;7.29;83.65
21824;BME280;11074;48.596;9.238;2023-11-22T05:06:27;98851.41;;;7.29;85.13
21824;BME280;11074;48.596;9.238;2023-11-22T05:08:54;98860.41;;;7.21;82.45
21824;BME280;11074;48.596;9.238;2023-11-22T05:11:21;98859.16;;;7.30;85.28
21824;BME280;11074;48.596;9.238;2023-11-22T05:13:47;98863.03;;;7.28;85.80
21824;BME280;11074;48.596;9.238;2023-11-22T05:16:12;98877.59;;;7.19;84.86
21824;BME280;11074;48.596;9.238;2023-11-22T05:18:38;98870.25;;;7.21;83.93
21824;BME280;11074;48.596;9.238;2023-11-22T05:21:04;98889.47;;;7.23;81.57
21824;BME280;11074;48.596;9.238;2023-11-22T05:23:31;98883.75;;;7.19;83.63
21824;BME280;11074;48.596;9.238;2023-11-22T05:25:59;98889.81;;;7.33;85.55
21824;BME280;11074;48.596;9.238;2023-11-22T05:28:25;98891.47;;;7.27;84.50
21824;BME280;11074;48.596;9.238;2023-11-22T05:30:51;98893.22;;;7.09;82.15
21824;BME280;11074;48.596;9.238;2023-11-22T05:33:17;98895.19;;;7.20;82.72
21824;BME280;11074;48.596;9.238;2023-11-22T05:35:43;98897.50;;;7.10;80.44
21824;BME280;11074;48.596;9.238;2023-11-22T05:38:08;98899.41;;;6.90;80.52
21824;BME280;11074;48.596;9.238;2023-11-22T05:40:38;98908.81;;;6.92;82.76
21824;BME280;11074;48.596;9.238;2023-11-22T05:43:04;98908.38;;;6.95;80.81
21824;BME280;11074;48.596;9.238;2023-11-22T05:45:30;98898.00;;;6.87;81.20
21824;BME280;11074;48.596;9.238;2023-11-22T05:47:56;98897.16;;;6.87;82.15
21824;BME280;11074;48.596;9.238;2023-11-22T05:50:22;98910.09;;;6.83;81.58
21824;BME280;11074;48.596;9.238;2023-11-22T05:52:47;98898.34;;;6.97;85.02
21824;BME280;11074;48.596;9.238;2023-11-22T05:55:13;98905.72;;;6.95;84.20
21824;BME280;11074;48.596;9.238;2023-11-22T05:57:40;98906.97;;;6.93;83.53
21824;BME280;11074;48.596;9.238;2023-11-22T06:00:08;98905.97;;;6.94;82.35
21824;BME280;11074;48.596;9.238;2023-11-22T06:02:34;98920.19;;;7.12;83.82
21824;BME280;11074;48.596;9.238;2023-11-22T06:04:59;98918.13;;;7.14;84.06
21824;BME280;11074;48.596;9.238;2023-11-22T06:07:26;98926.16;;;7.01;82.85
21824;BME280;11074;48.596;9.238;2023-11-22T06:09:52;98937.03;;;7.00;80.95
21824;BME280;11074;48.596;9.238;2023-11-22T06:12:18;98941.09;;;7.02;82.37
21824;BME280;11074;48.596;9.238;2023-11-22T06:14:46;98939.69;;;7.00;79.10
21824;BME280;11074;48.596;9.238;2023-11-22T06:17:12;98945.97;;;7.05;80.58
21824;BME280;11074;48.596;9.238;2023-11-22T06:19:40;98952.53;;;7.03;80.38
21824;BME280;11074;48.596;9.238;2023-11-22T06:22:07;98955.41;;;6.95;80.29
21824;BME280;11074;48.596;9.238;2023-11-22T06:24:33;98954.38;;;7.02;81.93
21824;BME280;11074;48.596;9.238;2023-11-22T06:27:02;98960.50;;;7.03;81.42
21824;BME280;11074;48.596;9.238;2023-11-22T06:29:27;98971.19;;;6.83;79.41
21824;BME280;11074;48.596;9.238;2023-11-22T06:31:53;98969.94;;;6.99;81.17
21824;BME280;11074;48.596;9.238;2023-11-22T06:34:19;98982.81;;;7.02;82.22
21824;BME280;11074;48.596;9.238;2023-11-22T06:36:45;98978.72;;;6.99;81.24
21824;BME280;11074;48.596;9.238;2023-11-22T06:39:10;98976.28;;;6.91;80.64
21824;BME280;11074;48.596;9.238;2023-11-22T06:41:41;98989.53;;;7.04;81.27
21824;BME280;11074;48.596;9.238;2023-11-22T06:44:06;98988.13;;;7.02;79.75
21824;BME280;11074;48.596;9.238;2023-11-22T06:46:32;99000.78;;;7.06;81.80
21824;BME280;11074;48.596;9.238;2023-11-22T06:48:58;98999.13;;;7.05;80.89
21824;BME280;11074;48.596;9.238;2023-11-22T06:51:24;98995.69;;;7.05;79.95
21824;BME280;11074;48.596;9.238;2023-11-22T06:53:50;98997.94;;;7.08;80.77
21824;BME280;11074;48.596;9.238;2023-11-22T06:56:17;99003.84;;;7.10;80.20
21824;BME280;11074;48.596;9.238;2023-11-22T06:58:43;99008.00;;;6.86;78.27
21824;BME280;11074;48.596;9.238;2023-11-22T07:01:09;99011.44;;;6.93;81.02
21824;BME280;11074;48.596;9.238;2023-11-22T07:03:36;99012.50;;;6.72;76.80
21824;BME280;11074;48.596;9.238;2023-11-22T07:06:03;99012.28;;;6.94;80.52
21824;BME280;11074;48.596;9.238;2023-11-22T07:08:30;99010.44;;;6.88;79.71
21824;BME280;11074;48.596;9.238;2023-11-22T07:10:56;99020.25;;;6.94;80.24
21824;BME280;11074;48.596;9.238;2023-11-22T07:13:23;99028.41;;;6.99;82.10
21824;BME280;11074;48.596;9.238;2023-11-22T07:15:50;99017.16;;;7.03;83.03
21824;BME280;11074;48.596;9.238;2023-11-22T07:18:16;99015.09;;;7.05;82.30
21824;BME280;11074;48.596;9.238;2023-11-22T07:20:42;99019.19;;;7.08;83.34
21824;BME280;11074;48.596;9.238;2023-11-22T07:23:08;99023.09;;;6.92;81.32
21824;BME280;11074;48.596;9.238;2023-11-22T07:25:39;99021.84;;;7.01;82.90
21824;BME280;11074;48.596;9.238;2023-11-22T07:28:07;99026.75;;;6.98;80.69
21824;BME280;11074;48.596;9.238;2023-11-22T07:30:32;99020.88;;;6.89;79.30
21824;BME280;11074;48.596;9.238;2023-11-22T07:32:59;99025.53;;;7.00;81.56
21824;BME280;11074;48.596;9.238;2023-11-22T07:35:25;99038.66;;;6.82;79.08
21824;BME280;11074;48.596;9.238;2023-11-22T07:37:51;99040.06;;;6.91;79.41
21824;BME280;11074;48.596;9.238;2023-11-22T07:40:17;99044.56;;;6.84;78.47
21824;BME280;11074;48.596;9.238;2023-11-22T07:42:44;99057.63;;;6.92;79.94
21824;BME280;11074;48.596;9.238;2023-11-22T07:45:10;99072.78;;;6.85;78.42
21824;BME280;11074;48.596;9.238;2023-11-22T07:47:38;99073.81;;;6.91;78.65
21824;BME280;11074;48.596;9.238;2023-11-22T07:50:10;99073.59;;;6.86;78.11
21824;BME280;11074;48.596;9.238;2023-11-22T07:52:39;99078.91;;;6.86;79.92
21824;BME280;11074;48.596;9.238;2023-11-22T07:55:07;99081.16;;;6.95;80.67
21824;BME280;11074;48.596;9.238;2023-11-22T07:57:34;99084.41;;;7.04;82.19
21824;BME280;11074;48.596;9.238;2023-11-22T08:00:00;99089.09;;;7.08;82.14
21824;BME280;11074;48.596;9.238;2023-11-22T08:02:27;99083.63;;;6.84;78.31
21824;BME280;11074;48.596;9.238;2023-11-22T08:04:53;99078.09;;;6.72;81.02
21824;BME280;11074;48.596;9.238;2023-11-22T08:07:20;99076.28;;;6.46;79.10
21824;BME280;11074;48.596;9.238;2023-11-22T08:09:48;99083.41;;;6.46;85.34
21824;BME280;11074;48.596;9.238;2023-11-22T08:12:13;99076.88;;;6.48;83.02
21824;BME280;11074;48.596;9.238;2023-11-22T08:14:39;99079.97;;;6.65;89.69
21824;BME280;11074;48.596;9.238;2023-11-22T08:17:06;99084.44;;;6.78;88.67
21824;BME280;11074;48.596;9.238;2023-11-22T08:19:32;99083.41;;;6.85;84.59
21824;BME280;11074;48.596;9.238;2023-11-22T08:21:57;99083.00;;;6.88;83.72
21824;BME280;11074;48.596;9.238;2023-11-22T08:24:23;99077.28;;;6.91;82.76
21824;BME280;11074;48.596;9.238;2023-11-22T08:26:49;99085.84;;;6.87;82.92
21824;BME280;11074;48.596;9.238;2023-11-22T08:29:14;99083.81;;;6.95;82.37
21824;BME280;11074;48.596;9.238;2023-11-22T08:31:41;99089.53;;;6.92;82.85
21824;BME280;11074;48.596;9.238;2023-11-22T08:34:07;99090.34;;;6.93;82.41
21824;BME280;11074;48.596;9.238;2023-11-22T08:36:33;99087.72;;;6.99;81.72
21824;BME280;11074;48.596;9.238;2023-11-22T08:39:03;99086.69;;;6.94;82.81
21824;BME280;11074;48.596;9.238;2023-11-22T08:41:30;99093.22;;;6.98;82.80
21824;BME280;11074;48.596;9.238;2023-11-22T08:43:56;99101.81;;;6.93;80.65
21824;BME280;11074;48.596;9.238;2023-11-22T08:46:22;99106.91;;;6.95;81.25
21824;BME280;11074;48.596;9.238;2023-11-22T08:48:49;99100.38;;;6.91;81.81
21824;BME280;11074;48.596;9.238;2023-11-22T08:51:16;99103.47;;;6.94;81.68
21824;BME280;11074;48.596;9.238;2023-11-22T08:53:43;99104.06;;;6.70;80.23
21824;BME280;11074;48.596;9.238;2023-11-22T08:56:10;99095.25;;;6.76;80.77
21824;BME280;11074;48.596;9.238;2023-11-22T08:58:39;99104.25;;;6.82;81.86
21824;BME280;11074;48.596;9.238;2023-11-22T09:01:06;99101.81;;;6.60;78.89
21824;BME280;11074;48.596;9.238;2023-11-22T09:03:33;99099.97;;;6.67;80.81
21824;BME280;11074;48.596;9.238;2023-11-22T09:05:59;99106.72;;;6.63;78.98
21824;BME280;11074;48.596;9.238;2023-11-22T09:08:26;99105.28;;;6.61;77.84
21824;BME280;11074;48.596;9.238;2023-11-22T09:10:52;99098.56;;;6.65;79.14
21824;BME280;11074;48.596;9.238;2023-11-22T09:13:18;99103.66;;;6.66;81.20
21824;BME280;11074;48.596;9.238;2023-11-22T09:15:44;99095.25;;;6.63;80.40
21824;BME280;11074;48.596;9.238;2023-11-22T09:18:11;99080.53;;;6.60;79.22
21824;BME280;11074;48.596;9.238;2023-11-22T09:20:39;99096.50;;;6.73;81.96
21824;BME280;11074;48.596;9.238;2023-11-22T09:23:05;99086.28;;;6.70;78.58
21824;BME280;11074;48.596;9.238;2023-11-22T09:25:31;99091.78;;;6.69;77.64
21824;BME280;11074;48.596;9.238;2023-11-22T09:27:58;99089.34;;;6.61;78.67
21824;BME280;11074;48.596;9.238;2023-11-22T09:30:30;99102.81;;;6.66;79.20
21824;BME280;11074;48.596;9.238;2023-11-22T09:33:15;99098.16;;;6.81;82.11
21824;BME280;11074;48.596;9.238;2023-11-22T09:35:43;99098.16;;;6.81;82.16
21824;BME280;11074;48.596;9.238;2023-11-22T09:38:10;99103.03;;;6.78;79.81
21824;BME280;11074;48.596;9.238;2023-11-22T09:40:43;99102.25;;;6.84;80.12
21824;BME280;11074;48.596;9.238;2023-11-22T09:43:09;99103.88;;;6.78;79.99
21824;BME280;11074;48.596;9.238;2023-11-22T09:45:36;99106.13;;;6.81;79.57
21824;BME280;11074;48.596;9.238;2023-11-22T09:48:24;99106.72;;;6.63;77.87
21824;BME280;11074;48.596;9.238;2023-11-22T09:56:09;99125.09;;;6.52;79.13
21824;BME280;11074;48.596;9.238;2023-11-22T09:58:41;99128.78;;;6.64;80.46
21824;BME280;11074;48.596;9.238;2023-11-22T10:01:11;99133.69;;;6.73;81.87
21824;BME280;11074;48.596;9.238;2023-11-22T10:03:39;99128.81;;;6.84;81.14
21824;BME280;11074;48.596;9.238;2023-11-22T10:06:06;99134.50;;;6.87;81.72
21824;BME280;11074;48.596;9.238;2023-11-22T10:08:32;99150.25;;;6.95;80.29
21824;BME280;11074;48.596;9.238;2023-11-22T10:10:59;99147.59;;;6.95;81.02
21824;BME280;11074;48.596;9.238;2023-11-22T10:13:26;99150.06;;;6.90;80.47
21824;BME280;11074;48.596;9.238;2023-11-22T10:15:53;99156.81;;;6.86;81.23
21824;BME280;11074;48.596;9.238;2023-11-22T10:18:20;99155.19;;;6.92;78.82
21824;BME280;11074;48.596;9.238;2023-11-22T10:20:48;99156.63;;;6.81;78.70
21824;BME280;11074;48.596;9.238;2023-11-22T10:23:17;99155.59;;;6.76;80.12
21824;BME280;11074;48.596;9.238;2023-11-22T10:25:45;99155.38;;;6.77;78.45
21824;BME280;11074;48.596;9.238;2023-11-22T10:28:13;99154.75;;;6.68;80.31
21824;BME280;11074;48.596;9.238;2023-11-22T10:30:38;99148.19;;;6.71;80.37
21824;BME280;11074;48.596;9.238;2023-11-22T10:33:06;99149.03;;;6.78;80.45
21824;BME280;11074;48.596;9.238;2023-11-22T10:35:32;99159.28;;;6.81;76.49
21824;BME280;11074;48.596;9.238;2023-11-22T10:38:00;99145.13;;;6.74;77.96
21824;BME280;11074;48.596;9.238;2023-11-22T10:40:29;99157.63;;;6.80;81.20
21824;BME280;11074;48.596;9.238;2023-11-22T10:42:56;99152.50;;;6.85;80.33
21824;BME280;11074;48.596;9.238;2023-11-22T10:45:22;99148.41;;;6.69;79.68
21824;BME280;11074;48.596;9.238;2023-11-22T10:47:51;99148.00;;;6.72;79.96
21824;BME280;11074;48.596;9.238;2023-11-22T10:50:17;99150.47;;;6.87;81.95
21824;BME280;11074;48.596;9.238;2023-11-22T10:52:47;99151.50;;;6.86;81.36
21824;BME280;11074;48.596;9.238;2023-11-22T10:55:16;99157.41;;;6.95;81.60
21824;BME280;11074;48.596;9.238;2023-11-22T10:57:46;99162.97;;;7.00;81.62
21824;BME280;11074;48.596;9.238;2023-11-22T11:00:15;99155.78;;;6.87;80.53
21824;BME280;11074;48.596;9.238;2023-11-22T11:02:46;99160.91;;;6.89;80.07
21824;BME280;11074;48.596;9.238;2023-11-22T11:05:21;99169.47;;;6.97;81.02
21824;BME280;11074;48.596;9.238;2023-11-22T11:08:11;99172.34;;;6.83;78.28
21824;BME280;11074;48.596;9.238;2023-11-22T11:10:43;99169.91;;;6.81;79.55
21824;BME280;11074;48.596;9.238;2023-11-22T11:13:10;99163.75;;;6.74;80.01
21824;BME280;11074;48.596;9.238;2023-11-22T11:15:38;99168.44;;;6.79;79.82
21824;BME280;11074;48.596;9.238;2023-11-22T11:18:06;99175.81;;;6.70;79.36
21824;BME280;11074;48.596;9.238;2023-11-22T11:20:58;99171.94;;;6.72;78.71
21824;BME280;11074;48.596;9.238;2023-11-22T11:23:28;99168.63;;;6.64;76.86
21824;BME280;11074;48.596;9.238;2023-11-22T11:26:08;99177.81;;;6.55;77.08
21824;BME280;11074;48.596;9.238;2023-11-22T11:28:47;99172.09;;;6.58;80.21
21824;BME280;11074;48.596;9.238;2023-11-22T11:31:14;99171.69;;;6.61;78.51
21824;BME280;11074;48.596;9.238;2023-11-22T11:36:27;99171.84;;;6.33;77.09
21824;BME280;11074;48.596;9.238;2023-11-22T11:38:56;99176.94;;;6.35;78.52
21824;BME280;11074;48.596;9.238;2023-11-22T11:41:33;99171.88;;;6.46;78.70
21824;BME280;11074;48.596;9.238;2023-11-22T11:44:01;99178.22;;;6.52;79.17
21824;BME280;11074;48.596;9.238;2023-11-22T11:46:29;99177.00;;;6.54;78.92
21824;BME280;11074;48.596;9.238;2023-11-22T11:48:56;99180.25;;;6.50;78.61
21824;BME280;11074;48.596;9.238;2023-11-22T11:51:24;99179.03;;;6.52;80.16
21824;BME280;11074;48.596;9.238;2023-11-22T11:53:51;99180.63;;;6.40;77.16
21824;BME280;11074;48.596;9.238;2023-11-22T11:56:18;99191.22;;;6.34;78.73
21824;BME280;11074;48.596;9.238;2023-11-22T11:58:47;99188.41;;;6.35;78.99
21824;BME280;11074;48.596;9.238;2023-11-22T12:01:16;99205.97;;;6.43;77.08
21824;BME280;11074;48.596;9.238;2023-11-22T12:03:43;99202.88;;;6.33;77.01
21824;BME280;11074;48.596;9.238;2023-11-22T12:06:09;99214.56;;;6.38;78.46
21824;BME280;11074;48.596;9.238;2023-11-22T12:08:35;99212.06;;;6.37;79.39
21824;BME280;11074;48.596;9.238;2023-11-22T12:11:02;99222.75;;;6.50;82.08
21824;BME280;11074;48.596;9.238;2023-11-22T12:13:30;99217.47;;;6.56;80.42
21824;BME280;11074;48.596;9.238;2023-11-22T12:15:58;99232.41;;;6.64;80.09
21824;BME280;11074;48.596;9.238;2023-11-22T12:18:25;99241.19;;;6.71;81.07
21824;BME280;11074;48.596;9.238;2023-11-22T12:20:59;99235.09;;;6.77;79.92
21824;BME280;11074;48.596;9.238;2023-11-22T12:23:27;99237.94;;;6.76;79.09
21824;BME280;11074;48.596;9.238;2023-11-22T12:25:57;99244.69;;;6.78;79.24
21824;BME280;11074;48.596;9.238;2023-11-22T12:28:26;99245.53;;;6.85;80.01
21824;BME280;11074;48.596;9.238;2023-11-22T12:30:52;99246.97;;;6.88;81.24
21824;BME280;11074;48.596;9.238;2023-11-22T12:33:19;99246.34;;;6.92;80.40
21824;BME280;11074;48.596;9.238;2023-11-22T12:35:48;99249.66;;;6.94;79.84
21824;BME280;11074;48.596;9.238;2023-11-22T12:38:14;99253.31;;;6.93;79.65
21824;BME280;11074;48.596;9.238;2023-11-22T12:40:45;99258.63;;;6.93;79.60
21824;BME280;11074;48.596;9.238;2023-11-22T12:43:14;99260.25;;;6.81;79.81
21824;BME280;11074;48.596;9.238;2023-11-22T12:45:41;99252.25;;;6.75;79.65
21824;BME280;11074;48.596;9.238;2023-11-22T12:48:26;99253.88;;;6.62;77.17
21824;BME280;11074;48.596;9.238;2023-11-22T12:50:58;99245.84;;;6.56;77.78
21824;BME280;11074;48.596;9.238;2023-11-22T12:53:25;99239.94;;;6.54;78.68
21824;BME280;11074;48.596;9.238;2023-11-22T12:55:56;99244.88;;;6.70;80.08
21824;BME280;11074;48.596;9.238;2023-11-22T12:58:24;99245.72;;;6.70;80.18
21824;BME280;11074;48.596;9.238;2023-11-22T13:00:52;99243.44;;;6.74;81.03
21824;BME280;11074;48.596;9.238;2023-11-22T13:03:26;99240.78;;;6.74;79.56
21824;BME280;11074;48.596;9.238;2023-11-22T13:05:54;99239.13;;;6.60;78.64
21824;BME280;11074;48.596;9.238;2023-11-22T13:08:20;99236.69;;;6.65;80.00
21824;BME280;11074;48.596;9.238;2023-11-22T13:10:49;99236.28;;;6.61;77.48
21824;BME280;11074;48.596;9.238;2023-11-22T13:13:24;99242.97;;;6.51;77.57
21824;BME280;11074;48.596;9.238;2023-11-22T13:15:51;99234.09;;;6.31;77.95
21824;BME280;11074;48.596;9.238;2023-11-22T13:18:18;99244.38;;;6.40;80.86